Bartonsville, PA (18321)

8:36 AM EST on February 25, 2017 (GMT -0500)
The Woodlands | | Change Station

Elev 994 ft 41.02 °N, 75.28 °W | Updated 11 seconds ago

Overcast
Overcast
59.3 °F
Feels Like 59.3 °F
N
1.0
Wind Variable Wind from South

Today
High -- | Low -- °F
--% Chance of Precip.
Yesterday
High -- | Low -- °F
Precip. -- in
Pressure 29.69 in
Visibility 2.5 miles
Clouds Overcast 200 ft
Dew Point 55 °F
Humidity 86%
Rainfall 0.00 in
Snow Depth Not available.
6:40 AM 5:47 PM
Waning Crescent, 1% visible
SPECI KMPO 251325Z AUTO 16009G16KT 2 1/2SM BR OVC002 12/12 A2969 RMK AO2 T01220122
Pressure 29.69 in
Visibility 2.5 miles
Clouds Overcast 200 ft
Dew Point 55 °F
Humidity 86%
Rainfall 0.00 in
Snow Depth Not available.
6:40 AM 5:47 PM
Waning Crescent, 1% visible
SPECI KMPO 251325Z AUTO 16009G16KT 2 1/2SM BR OVC002 12/12 A2969 RMK AO2 T01220122

Get Your Daily Forecast Email!

Thanks for signing up!

Be on the lookout for a verification email in your inbox.

You'll start receiving the daily forecast at 8 AM.

×

10-Day Weather Forecast

Almanac

Astronomy

Feb. 25, 2017 Rise Set
Actual Time
Civil Twilight
Nautical Twilight
Astronomical Twilight
Moon
Length of Visible Light
Length of Day
Tomorrow will be .
, % of the Moon is Illuminated

Today's Extremes

State Highs State Lows

Community

WunderPhotos

Upload Photos

1,962,540 photos uploaded!

WunderBlog® & News

Nearby

Air Quality

  Air Quality AQ Index Pollutant
Not available.

Snow Depth

Station Depth Elevation

Earthquake Activity

City Distance Mag. Time & Date
Minimum magnitude displayed is 2.5.

Coastal Water Temperatures

Place Temperature

Stations

Nearby Weather Stations

Station Location Temp. Windchill Dew Point Humidity Wind Precip. Elev Updated Type
                   

Watches & Warnings

There are currently no watches in effect.